Time;durP1;ratioP1;P1;durP2;ratioP2;P2;SDS_P1;SDS_P2;PMS_P1;PMS_P2;Temp;Humidity;BMP_temperature;BMP_pressure;BME280_temperature;BME280_humidity;BME280_pressure;Samples;Min_cycle;Max_cycle;Signal;HPM_P1;HPM_P2
2021/04/05 00:00:11;;;;;;;20.58;11.13;;;;;;;;;;5115080;28;20231;-74
2021/04/05 00:02:37;;;;;;;19.23;11.35;;;;;;;;;;5104413;28;20581;-75
2021/04/05 00:05:07;;;;;;;23.73;12.10;;;;;;;;;;5107979;28;20218;-76
2021/04/05 00:07:33;;;;;;;19.88;12.10;;;;;;;;;;5094896;28;20226;-76
2021/04/05 00:09:59;;;;;;;16.73;11.55;;;;;;;;;;5094562;28;20207;-76
2021/04/05 00:12:25;;;;;;;20.88;12.23;;;;;;;;;;5105746;28;20167;-75
2021/04/05 00:14:51;;;;;;;24.30;13.73;;;;;;;;;;5103076;28;20550;-76
2021/04/05 00:17:17;;;;;;;23.42;12.77;;;;;;;;;;5103878;28;20178;-75
2021/04/05 00:19:44;;;;;;;18.52;12.82;;;;;;;;;;5098440;28;20191;-74
2021/04/05 00:22:10;;;;;;;18.77;12.70;;;;;;;;;;5114772;28;20171;-75
2021/04/05 00:24:36;;;;;;;18.83;12.65;;;;;;;;;;5094877;28;20190;-76
2021/04/05 00:27:02;;;;;;;21.75;14.07;;;;;;;;;;5094149;28;20667;-76
2021/04/05 00:29:28;;;;;;;23.40;12.90;;;;;;;;;;5094179;28;20180;-75
2021/04/05 00:31:54;;;;;;;21.73;12.93;;;;;;;;;;5094227;28;20171;-76
2021/04/05 00:34:20;;;;;;;21.85;14.30;;;;;;;;;;5097764;28;20649;-76
2021/04/05 00:36:46;;;;;;;24.25;14.15;;;;;;;;;;5113583;28;20218;-76
2021/04/05 00:39:12;;;;;;;19.73;14.63;;;;;;;;;;5094685;28;20199;-76
2021/04/05 00:41:38;;;;;;;23.27;14.68;;;;;;;;;;5094246;28;20232;-76
2021/04/05 00:44:04;;;;;;;21.85;16.25;;;;;;;;;;5094539;28;20179;-76
2021/04/05 00:46:30;;;;;;;26.92;15.30;;;;;;;;;;5093361;28;20560;-75
2021/04/05 00:48:56;;;;;;;21.70;14.60;;;;;;;;;;5093757;28;20179;-75
2021/04/05 00:51:24;;;;;;;22.73;15.00;;;;;;;;;;5094461;28;20175;-75
2021/04/05 00:53:50;;;;;;;26.45;16.45;;;;;;;;;;5112993;28;20178;-75
2021/04/05 00:56:18;;;;;;;26.70;15.80;;;;;;;;;;5105535;28;20191;-75
2021/04/05 00:58:44;;;;;;;24.13;16.08;;;;;;;;;;5100285;28;20586;-74
2021/04/05 01:01:12;;;;;;;23.90;16.88;;;;;;;;;;5102174;28;20176;-76
2021/04/05 01:03:40;;;;;;;23.38;16.60;;;;;;;;;;5093428;28;20183;-77
2021/04/05 01:06:07;;;;;;;22.70;16.27;;;;;;;;;;5094051;28;20245;-74
2021/04/05 01:08:33;;;;;;;23.08;16.05;;;;;;;;;;5099258;28;20307;-75
2021/04/05 01:10:59;;;;;;;28.40;16.52;;;;;;;;;;5114091;28;20171;-75
2021/04/05 01:13:25;;;;;;;22.48;16.15;;;;;;;;;;5106451;28;20182;-77
2021/04/05 01:15:51;;;;;;;27.45;16.10;;;;;;;;;;5093159;28;20529;-75
2021/04/05 01:18:18;;;;;;;25.50;17.60;;;;;;;;;;5112950;28;20319;-76
2021/04/05 01:20:44;;;;;;;25.77;14.77;;;;;;;;;;5102687;28;20304;-76
2021/04/05 01:23:11;;;;;;;24.52;17.38;;;;;;;;;;5112774;28;20487;-75
2021/04/05 01:25:37;;;;;;;21.73;16.00;;;;;;;;;;5094758;28;20195;-76
2021/04/05 01:28:04;;;;;;;25.30;17.73;;;;;;;;;;5092494;28;20586;-76
2021/04/05 01:30:39;;;;;;;30.25;17.80;;;;;;;;;;5093103;28;20183;-75
2021/04/05 01:33:09;;;;;;;25.35;18.00;;;;;;;;;;5092850;28;20542;-75
2021/04/05 01:35:37;;;;;;;25.65;17.35;;;;;;;;;;5092795;28;20204;-76
2021/04/05 01:38:03;;;;;;;24.13;17.77;;;;;;;;;;5093048;28;20632;-76
2021/04/05 01:40:29;;;;;;;25.45;16.90;;;;;;;;;;5092789;28;20286;-76
2021/04/05 01:42:56;;;;;;;21.63;15.98;;;;;;;;;;5093066;28;20168;-75
2021/04/05 01:45:22;;;;;;;23.15;16.00;;;;;;;;;;5092573;28;20195;-75
2021/04/05 01:47:48;;;;;;;24.83;17.43;;;;;;;;;;5097357;28;20236;-75
2021/04/05 01:50:14;;;;;;;24.80;16.30;;;;;;;;;;5105470;28;20424;-76
2021/04/05 01:52:41;;;;;;;26.63;17.48;;;;;;;;;;5102361;28;20596;-75
2021/04/05 01:55:08;;;;;;;20.67;12.93;;;;;;;;;;5091870;28;20206;-77
2021/04/05 01:57:34;;;;;;;26.33;16.23;;;;;;;;;;5092949;28;20179;-74
2021/04/05 02:00:00;;;;;;;25.05;15.25;;;;;;;;;;5112735;28;20570;-75
2021/04/05 02:02:26;;;;;;;24.30;16.07;;;;;;;;;;5117480;28;20178;-75
2021/04/05 02:04:52;;;;;;;23.20;16.65;;;;;;;;;;5114346;28;20408;-76
2021/04/05 02:07:18;;;;;;;24.75;16.40;;;;;;;;;;5098727;28;20167;-76
2021/04/05 02:09:44;;;;;;;24.70;16.40;;;;;;;;;;5096412;28;20207;-75
2021/04/05 02:12:10;;;;;;;22.75;15.30;;;;;;;;;;5104315;28;20587;-75
2021/04/05 02:14:36;;;;;;;29.83;17.08;;;;;;;;;;5104060;28;20198;-75
2021/04/05 02:17:02;;;;;;;23.73;15.55;;;;;;;;;;5104528;28;20198;-75
2021/04/05 02:19:28;;;;;;;20.55;13.35;;;;;;;;;;5115657;28;20730;-74
2021/04/05 02:21:54;;;;;;;19.93;13.17;;;;;;;;;;5105826;28;20263;-76
2021/04/05 02:24:21;;;;;;;24.00;15.00;;;;;;;;;;5116585;28;20389;-75
2021/04/05 02:26:47;;;;;;;23.85;15.20;;;;;;;;;;5099352;28;20660;-75
2021/04/05 02:29:18;;;;;;;24.38;13.70;;;;;;;;;;5096209;28;20183;-75
2021/04/05 02:31:44;;;;;;;23.75;14.77;;;;;;;;;;5096314;28;20571;-75
2021/04/05 02:34:14;;;;;;;19.85;12.60;;;;;;;;;;5097298;28;20258;-75
2021/04/05 02:36:41;;;;;;;19.67;13.88;;;;;;;;;;5105066;28;20207;-75
2021/04/05 02:39:11;;;;;;;22.75;14.25;;;;;;;;;;5096031;28;20550;-74
2021/04/05 02:41:38;;;;;;;20.90;14.60;;;;;;;;;;5106028;28;20174;-75
2021/04/05 02:44:04;;;;;;;22.40;14.57;;;;;;;;;;5114725;28;20177;-76
2021/04/05 02:46:34;;;;;;;22.63;15.35;;;;;;;;;;5100624;27;20209;-75
2021/04/05 02:49:02;;;;;;;22.48;14.63;;;;;;;;;;5111039;28;20183;-76
2021/04/05 02:51:28;;;;;;;20.88;13.43;;;;;;;;;;5106192;28;20179;-75
2021/04/05 02:53:56;;;;;;;24.05;14.63;;;;;;;;;;5094732;28;20258;-75
2021/04/05 02:56:22;;;;;;;21.55;14.27;;;;;;;;;;5095154;28;20217;-74
2021/04/05 02:58:50;;;;;;;25.10;14.82;;;;;;;;;;5098441;28;20179;-79
2021/04/05 03:01:17;;;;;;;20.35;14.02;;;;;;;;;;5104935;28;20230;-75
2021/04/05 03:03:44;;;;;;;26.45;13.88;;;;;;;;;;5115945;28;20167;-75
2021/04/05 03:06:13;;;;;;;20.30;12.55;;;;;;;;;;5099341;28;20616;-76
2021/04/05 03:08:39;;;;;;;22.17;14.10;;;;;;;;;;5095275;28;20288;-76
2021/04/05 03:11:05;;;;;;;25.40;14.80;;;;;;;;;;5098016;28;20175;-74
2021/04/05 03:13:32;;;;;;;22.63;14.30;;;;;;;;;;5098465;28;20194;-74
2021/04/05 03:15:59;;;;;;;25.00;15.35;;;;;;;;;;5102285;28;20187;-75
2021/04/05 03:18:25;;;;;;;24.67;14.15;;;;;;;;;;5112569;28;20178;-75
2021/04/05 03:20:52;;;;;;;24.92;14.27;;;;;;;;;;5103718;27;20206;-76
2021/04/05 03:23:18;;;;;;;26.73;15.85;;;;;;;;;;5112313;28;20178;-76
2021/04/05 03:25:44;;;;;;;21.65;16.13;;;;;;;;;;5105081;28;20219;-76
2021/04/05 03:28:10;;;;;;;23.90;14.60;;;;;;;;;;5095294;28;20213;-75
2021/04/05 03:30:41;;;;;;;22.58;13.80;;;;;;;;;;5094827;28;20417;-76
2021/04/05 03:33:22;;;;;;;30.50;17.20;;;;;;;;;;5113442;28;20210;-76
2021/04/05 03:35:52;;;;;;;23.33;16.40;;;;;;;;;;5115500;28;20195;-77
2021/04/05 03:38:18;;;;;;;27.48;16.75;;;;;;;;;;5095325;28;20203;-75
2021/04/05 03:40:45;;;;;;;26.63;16.77;;;;;;;;;;5094811;28;20264;-76
2021/04/05 03:43:14;;;;;;;23.35;16.85;;;;;;;;;;5095025;28;20224;-76
2021/04/05 03:45:40;;;;;;;28.65;17.83;;;;;;;;;;5094628;28;20214;-74
2021/04/05 03:48:16;;;;;;;30.50;18.10;;;;;;;;;;5100991;28;20174;-75
2021/04/05 03:50:51;;;;;;;27.42;17.80;;;;;;;;;;5104643;28;20399;-75
2021/04/05 03:53:37;;;;;;;33.78;19.55;;;;;;;;;;5094783;28;20187;-75
2021/04/05 03:56:06;;;;;;;30.45;19.30;;;;;;;;;;5093714;28;20197;-74
2021/04/05 03:58:33;;;;;;;34.25;20.58;;;;;;;;;;5094638;28;20685;-72
2021/04/05 04:01:06;;;;;;;31.05;19.85;;;;;;;;;;5096158;28;20231;-75
2021/04/05 04:03:42;;;;;;;34.55;19.80;;;;;;;;;;5114620;28;20179;-75
2021/04/05 04:06:09;;;;;;;28.63;18.98;;;;;;;;;;5096983;28;20191;-74
2021/04/05 04:08:44;;;;;;;29.35;18.92;;;;;;;;;;5096454;28;20175;-75
2021/04/05 04:11:12;;;;;;;36.50;20.58;;;;;;;;;;5104291;28;20174;-72
2021/04/05 04:13:43;;;;;;;32.22;20.42;;;;;;;;;;5101396;28;20172;-75
2021/04/05 04:16:09;;;;;;;37.00;18.55;;;;;;;;;;5092420;28;20191;-73
2021/04/05 04:18:36;;;;;;;28.63;18.38;;;;;;;;;;5110131;28;20228;-72
2021/04/05 04:21:03;;;;;;;20.50;12.68;;;;;;;;;;5114470;28;20203;-73
2021/04/05 04:23:30;;;;;;;11.40;6.88;;;;;;;;;;5106198;28;20183;-71
2021/04/05 04:25:56;;;;;;;4.50;2.80;;;;;;;;;;5097972;28;20183;-74
2021/04/05 04:28:22;;;;;;;3.28;1.83;;;;;;;;;;5095142;28;20167;-75
2021/04/05 04:30:55;;;;;;;5.32;1.10;;;;;;;;;;5093786;28;20176;-75
2021/04/05 04:33:21;;;;;;;1.90;0.93;;;;;;;;;;5093632;28;20183;-74
2021/04/05 04:35:47;;;;;;;1.80;0.90;;;;;;;;;;5098821;28;20236;-73
2021/04/05 04:38:14;;;;;;;1.80;0.93;;;;;;;;;;5094075;28;20539;-73
2021/04/05 04:40:40;;;;;;;3.00;0.95;;;;;;;;;;5093508;28;20246;-73
2021/04/05 04:43:07;;;;;;;1.80;0.80;;;;;;;;;;5093578;28;20179;-72
2021/04/05 04:45:34;;;;;;;1.60;0.80;;;;;;;;;;5093507;28;20286;-71
2021/04/05 04:48:00;;;;;;;2.22;1.00;;;;;;;;;;5092337;28;20180;-75
2021/04/05 04:50:27;;;;;;;4.30;1.20;;;;;;;;;;5093728;28;20688;-72
2021/04/05 04:52:54;;;;;;;2.03;1.15;;;;;;;;;;5093765;28;20187;-74
2021/04/05 04:55:21;;;;;;;2.90;1.83;;;;;;;;;;5100117;28;20199;-73
2021/04/05 04:57:47;;;;;;;2.55;1.25;;;;;;;;;;5102631;28;20182;-75
2021/04/05 05:00:13;;;;;;;3.28;1.20;;;;;;;;;;5100534;28;20203;-74
2021/04/05 05:02:43;;;;;;;9.45;1.98;;;;;;;;;;5095173;28;20175;-75
2021/04/05 05:05:11;;;;;;;2.97;1.40;;;;;;;;;;5092858;28;20576;-74
2021/04/05 05:07:38;;;;;;;2.53;1.23;;;;;;;;;;5094520;28;20188;-73
2021/04/05 05:10:05;;;;;;;4.72;1.73;;;;;;;;;;5093312;28;20510;-75
2021/04/05 05:12:32;;;;;;;3.40;1.58;;;;;;;;;;5093611;28;20186;-74
2021/04/05 05:14:59;;;;;;;6.75;1.77;;;;;;;;;;5096096;28;20508;-73
2021/04/05 05:17:25;;;;;;;5.30;1.60;;;;;;;;;;5095737;28;20183;-73
2021/04/05 05:19:51;;;;;;;2.35;1.55;;;;;;;;;;5093383;28;20617;-74
2021/04/05 05:22:18;;;;;;;10.38;2.20;;;;;;;;;;5089462;28;20200;-73
2021/04/05 05:24:45;;;;;;;5.07;1.70;;;;;;;;;;5092891;28;20305;-76
2021/04/05 05:27:12;;;;;;;4.60;1.50;;;;;;;;;;5098132;28;20174;-74
2021/04/05 05:29:39;;;;;;;2.75;1.52;;;;;;;;;;5093075;28;20183;-75
2021/04/05 05:32:05;;;;;;;4.63;1.50;;;;;;;;;;5092799;28;20179;-73
2021/04/05 05:34:32;;;;;;;5.53;1.90;;;;;;;;;;5092253;28;20179;-75
2021/04/05 05:36:58;;;;;;;7.50;1.90;;;;;;;;;;5091711;28;20265;-74
2021/04/05 05:39:24;;;;;;;10.70;2.20;;;;;;;;;;5093022;28;20221;-74
2021/04/05 05:42:19;;;;;;;5.50;1.65;;;;;;;;;;5103468;28;20193;-73
2021/04/05 05:44:47;;;;;;;5.88;1.80;;;;;;;;;;5075403;28;20700;-75
2021/04/05 05:47:31;;;;;;;7.95;2.03;;;;;;;;;;5087762;28;20183;-75
2021/04/05 05:50:06;;;;;;;6.93;1.90;;;;;;;;;;5098108;28;20183;-73
2021/04/05 05:52:50;;;;;;;7.03;2.03;;;;;;;;;;5093001;28;20182;-75
2021/04/05 05:55:22;;;;;;;6.88;1.73;;;;;;;;;;5099906;28;20202;-74
2021/04/05 05:57:54;;;;;;;7.78;2.65;;;;;;;;;;5080236;28;20179;-74
2021/04/05 06:00:30;;;;;;;6.20;2.22;;;;;;;;;;5093675;28;20587;-75
2021/04/05 06:02:56;;;;;;;3.95;1.75;;;;;;;;;;5094924;28;20201;-74
2021/04/05 06:05:34;;;;;;;6.53;1.90;;;;;;;;;;5095219;28;20198;-72
2021/04/05 06:08:20;;;;;;;7.13;2.88;;;;;;;;;;5096350;28;20380;-73
2021/04/05 06:11:05;;;;;;;3.88;1.85;;;;;;;;;;5093164;28;20691;-73
2021/04/05 06:13:49;;;;;;;6.80;1.60;;;;;;;;;;5092334;28;20540;-73
2021/04/05 06:16:33;;;;;;;13.70;2.17;;;;;;;;;;5097594;28;20207;-74
2021/04/05 06:18:59;;;;;;;5.13;1.73;;;;;;;;;;5096936;28;20182;-74
2021/04/05 06:21:40;;;;;;;6.73;2.40;;;;;;;;;;5103275;28;20186;-73
2021/04/05 06:24:17;;;;;;;5.85;2.25;;;;;;;;;;5091054;28;20467;-76
2021/04/05 06:26:49;;;;;;;6.50;2.10;;;;;;;;;;5097468;28;20273;-74
2021/04/05 06:29:27;;;;;;;6.63;1.90;;;;;;;;;;5099815;28;20185;-75
2021/04/05 06:31:57;;;;;;;8.27;2.70;;;;;;;;;;5080997;28;20194;-73
2021/04/05 06:34:23;;;;;;;7.63;2.05;;;;;;;;;;5093017;28;20519;-74
2021/04/05 06:37:07;;;;;;;6.93;1.97;;;;;;;;;;5098595;28;20280;-74
2021/04/05 06:39:34;;;;;;;7.00;1.65;;;;;;;;;;5109752;28;20817;-75
2021/04/05 06:42:30;;;;;;;6.30;2.88;;;;;;;;;;5112683;28;20174;-73
2021/04/05 06:45:05;;;;;;;8.68;1.83;;;;;;;;;;5066714;28;20570;-75
2021/04/05 06:47:49;;;;;;;8.70;1.70;;;;;;;;;;5087561;28;20628;-74
2021/04/05 06:50:26;;;;;;;7.47;2.22;;;;;;;;;;5095651;28;20179;-74
2021/04/05 06:53:11;;;;;;;10.65;2.20;;;;;;;;;;5082477;28;20269;-74
2021/04/05 06:55:43;;;;;;;5.40;1.83;;;;;;;;;;5094824;28;20199;-75
2021/04/05 06:58:23;;;;;;;5.78;1.60;;;;;;;;;;5098380;28;20264;-73
2021/04/05 07:01:08;;;;;;;2.60;1.42;;;;;;;;;;5095873;28;20251;-75
2021/04/05 07:03:34;;;;;;;6.10;2.10;;;;;;;;;;5096772;28;20295;-75
2021/04/05 07:06:16;;;;;;;5.07;1.50;;;;;;;;;;5102511;28;20564;-76
2021/04/05 07:09:02;;;;;;;5.13;1.70;;;;;;;;;;5104218;28;20944;-74
2021/04/05 07:11:36;;;;;;;3.10;1.58;;;;;;;;;;5095815;28;20273;-73
2021/04/05 07:14:10;;;;;;;4.88;1.50;;;;;;;;;;5094747;28;20179;-75
2021/04/05 07:16:41;;;;;;;6.95;2.10;;;;;;;;;;5100398;28;20635;-74
2021/04/05 07:19:27;;;;;;;5.72;1.80;;;;;;;;;;5097503;27;20176;-75
2021/04/05 07:21:53;;;;;;;5.68;2.00;;;;;;;;;;5100701;28;20187;-76
2021/04/05 07:24:19;;;;;;;5.73;1.80;;;;;;;;;;5100834;28;20241;-74
2021/04/05 07:26:45;;;;;;;8.65;1.92;;;;;;;;;;5101127;28;20472;-73
2021/04/05 07:29:30;;;;;;;6.30;1.73;;;;;;;;;;5098258;28;20172;-75
2021/04/05 07:32:03;;;;;;;13.90;1.80;;;;;;;;;;5084225;28;20402;-76
2021/04/05 07:34:32;;;;;;;3.80;1.90;;;;;;;;;;5111442;28;20179;-73
2021/04/05 07:37:16;;;;;;;6.40;2.33;;;;;;;;;;5101608;28;20195;-76
2021/04/05 07:40:00;;;;;;;5.35;1.77;;;;;;;;;;5096905;28;20307;-74
2021/04/05 07:42:33;;;;;;;3.85;2.40;;;;;;;;;;5095055;28;20211;-75
2021/04/05 07:45:08;;;;;;;6.22;2.25;;;;;;;;;;5094618;28;20172;-75
2021/04/05 07:47:52;;;;;;;8.35;2.10;;;;;;;;;;5084644;28;20183;-73
2021/04/05 07:50:17;;;;;;;6.35;1.95;;;;;;;;;;5094752;28;20202;-74
2021/04/05 07:52:58;;;;;;;7.13;2.10;;;;;;;;;;5094172;28;20183;-75
2021/04/05 07:55:25;;;;;;;6.50;2.00;;;;;;;;;;5095621;28;20526;-76
2021/04/05 07:58:01;;;;;;;7.50;2.42;;;;;;;;;;5109278;28;20180;-74
2021/04/05 08:00:45;;;;;;;4.05;1.90;;;;;;;;;;5094425;28;20210;-75
2021/04/05 08:03:11;;;;;;;4.40;1.40;;;;;;;;;;5094038;28;20172;-75
2021/04/05 08:05:46;;;;;;;5.25;1.55;;;;;;;;;;5097357;28;20283;-74
2021/04/05 08:08:31;;;;;;;5.25;2.00;;;;;;;;;;5094196;28;20214;-74
2021/04/05 08:11:03;;;;;;;4.40;1.38;;;;;;;;;;5093815;28;20171;-75
2021/04/05 08:13:37;;;;;;;5.85;1.35;;;;;;;;;;5090602;28;20176;-75
2021/04/05 08:16:06;;;;;;;6.13;1.35;;;;;;;;;;5105337;28;20214;-76
2021/04/05 08:18:40;;;;;;;4.82;1.00;;;;;;;;;;5100493;28;20179;-75
2021/04/05 08:21:11;;;;;;;2.65;1.42;;;;;;;;;;5096523;28;20237;-75
2021/04/05 08:23:55;;;;;;;2.05;0.90;;;;;;;;;;5083109;28;20537;-74
2021/04/05 08:26:37;;;;;;;3.15;0.98;;;;;;;;;;5091365;28;20221;-75
2021/04/05 08:29:06;;;;;;;2.60;1.10;;;;;;;;;;5090121;28;20186;-75
2021/04/05 08:31:31;;;;;;;2.13;0.90;;;;;;;;;;5088858;28;20175;-74
2021/04/05 08:34:00;;;;;;;1.88;0.80;;;;;;;;;;5089605;28;20190;-75
2021/04/05 08:36:26;;;;;;;1.75;0.82;;;;;;;;;;5089794;28;20200;-76
2021/04/05 08:38:57;;;;;;;2.22;0.80;;;;;;;;;;5102079;28;20194;-75
2021/04/05 08:41:35;;;;;;;3.65;1.00;;;;;;;;;;5094543;28;20259;-77
2021/04/05 08:44:20;;;;;;;2.13;0.93;;;;;;;;;;5091813;28;20187;-74
2021/04/05 08:46:48;;;;;;;1.90;0.90;;;;;;;;;;5093914;28;20557;-76
2021/04/05 08:49:21;;;;;;;1.88;0.90;;;;;;;;;;5086630;28;20284;-74
2021/04/05 08:51:51;;;;;;;1.60;0.80;;;;;;;;;;5089393;28;20640;-74
2021/04/05 08:54:20;;;;;;;2.70;0.90;;;;;;;;;;5088015;28;20187;-77
2021/04/05 08:56:50;;;;;;;3.72;1.00;;;;;;;;;;5089068;28;20694;-76
2021/04/05 08:59:25;;;;;;;4.45;1.10;;;;;;;;;;5076495;28;20757;-77
2021/04/05 09:01:59;;;;;;;5.93;1.20;;;;;;;;;;5101557;28;20222;-73
2021/04/05 09:04:26;;;;;;;2.80;1.13;;;;;;;;;;5089201;28;20227;-75
2021/04/05 09:07:05;;;;;;;3.72;1.15;;;;;;;;;;5088171;28;20195;-76
2021/04/05 09:09:34;;;;;;;3.03;1.15;;;;;;;;;;5089485;28;20225;-76
2021/04/05 09:12:01;;;;;;;3.25;1.25;;;;;;;;;;5090309;28;20187;-75
2021/04/05 09:14:28;;;;;;;3.92;1.33;;;;;;;;;;5091715;28;20689;-76
2021/04/05 09:17:00;;;;;;;4.15;2.08;;;;;;;;;;5102400;28;20199;-78
2021/04/05 09:19:53;;;;;;;5.93;1.98;;;;;;;;;;5101845;28;20202;-76
2021/04/05 09:22:31;;;;;;;3.20;1.33;;;;;;;;;;5096446;28;20294;-74
2021/04/05 09:25:06;;;;;;;5.10;1.48;;;;;;;;;;5088776;28;20304;-78
2021/04/05 09:27:32;;;;;;;5.88;2.22;;;;;;;;;;5089289;28;20178;-77
2021/04/05 09:30:30;;;;;;;3.97;1.50;;;;;;;;;;5097060;28;20186;-76
2021/04/05 09:32:59;;;;;;;4.18;1.83;;;;;;;;;;5091997;28;20182;-76
2021/04/05 09:35:25;;;;;;;6.03;1.65;;;;;;;;;;5097770;28;20195;-74
2021/04/05 09:37:57;;;;;;;7.72;1.85;;;;;;;;;;5089300;28;20282;-76
2021/04/05 09:40:42;;;;;;;4.72;1.65;;;;;;;;;;5109571;28;20202;-76
2021/04/05 09:43:14;;;;;;;3.55;1.70;;;;;;;;;;5093065;28;20280;-74
2021/04/05 09:45:40;;;;;;;6.22;1.50;;;;;;;;;;5089058;28;20203;-75
2021/04/05 09:48:20;;;;;;;5.77;1.73;;;;;;;;;;5088485;28;20532;-76
2021/04/05 09:51:00;;;;;;;8.60;1.90;;;;;;;;;;5088604;28;20429;-77
2021/04/05 09:53:39;;;;;;;20.83;2.72;;;;;;;;;;5079103;28;20171;-77
2021/04/05 09:56:14;;;;;;;10.27;2.30;;;;;;;;;;5091366;28;20203;-76
2021/04/05 09:58:46;;;;;;;9.35;2.33;;;;;;;;;;5089188;28;20567;-78
2021/04/05 10:01:16;;;;;;;6.63;2.45;;;;;;;;;;5092587;28;20203;-77
2021/04/05 10:03:45;;;;;;;11.80;3.38;;;;;;;;;;5088703;28;20202;-77
2021/04/05 10:06:16;;;;;;;7.35;2.20;;;;;;;;;;5108945;28;20224;-78
2021/04/05 10:08:47;;;;;;;4.80;1.70;;;;;;;;;;5109379;28;20244;-75
2021/04/05 10:11:13;;;;;;;3.33;2.10;;;;;;;;;;5100518;28;20201;-75
2021/04/05 10:13:48;;;;;;;2.55;1.20;;;;;;;;;;5089513;28;20179;-76
2021/04/05 10:16:15;;;;;;;6.32;1.80;;;;;;;;;;5101013;28;20236;-76
2021/04/05 10:18:46;;;;;;;6.90;1.52;;;;;;;;;;5101639;28;20555;-76
2021/04/05 10:21:13;;;;;;;2.60;1.25;;;;;;;;;;5105452;28;20211;-78
2021/04/05 10:23:39;;;;;;;5.10;1.67;;;;;;;;;;5092130;28;20304;-76
2021/04/05 10:26:06;;;;;;;5.93;1.27;;;;;;;;;;5092011;28;20187;-76
2021/04/05 10:28:33;;;;;;;3.95;1.92;;;;;;;;;;5098817;28;20224;-76
2021/04/05 10:31:01;;;;;;;5.03;1.90;;;;;;;;;;5092679;28;20869;-75
2021/04/05 10:33:31;;;;;;;4.85;1.45;;;;;;;;;;5104548;28;20183;-75
2021/04/05 10:35:59;;;;;;;3.70;1.50;;;;;;;;;;5092649;28;20245;-76
2021/04/05 10:38:28;;;;;;;7.45;1.70;;;;;;;;;;5092232;28;20175;-76
2021/04/05 10:40:54;;;;;;;6.22;2.10;;;;;;;;;;5092101;28;20238;-76
2021/04/05 10:43:33;;;;;;;8.73;2.15;;;;;;;;;;5098725;28;20212;-76
2021/04/05 10:46:05;;;;;;;7.18;2.42;;;;;;;;;;5096906;28;20298;-75
2021/04/05 10:48:40;;;;;;;4.50;1.65;;;;;;;;;;5092380;28;20191;-77
2021/04/05 10:51:19;;;;;;;4.75;1.60;;;;;;;;;;5102926;28;20228;-76
2021/04/05 10:53:47;;;;;;;4.00;1.65;;;;;;;;;;5084486;28;20286;-75
2021/04/05 10:56:14;;;;;;;8.55;3.20;;;;;;;;;;5106875;28;20203;-75
2021/04/05 10:59:05;;;;;;;4.15;1.80;;;;;;;;;;5092150;28;20191;-75
2021/04/05 11:01:33;;;;;;;5.22;1.65;;;;;;;;;;5085323;28;20194;-76
2021/04/05 11:04:00;;;;;;;5.63;1.83;;;;;;;;;;5091592;28;20191;-76
2021/04/05 11:06:29;;;;;;;4.70;1.50;;;;;;;;;;5091744;28;20210;-75
2021/04/05 11:08:55;;;;;;;4.70;1.83;;;;;;;;;;5095527;28;20202;-79
2021/04/05 11:11:24;;;;;;;4.28;1.77;;;;;;;;;;5100817;28;20194;-77
2021/04/05 11:13:54;;;;;;;3.95;1.35;;;;;;;;;;5103876;28;20215;-77
2021/04/05 11:16:21;;;;;;;5.63;1.50;;;;;;;;;;5091365;28;20203;-76
2021/04/05 11:18:48;;;;;;;3.92;1.80;;;;;;;;;;5091937;28;20175;-76
2021/04/05 11:21:16;;;;;;;5.88;1.40;;;;;;;;;;5091686;28;20202;-80
2021/04/05 11:23:42;;;;;;;6.15;1.92;;;;;;;;;;5091558;28;20303;-77
2021/04/05 11:26:10;;;;;;;5.37;1.70;;;;;;;;;;5091608;28;20242;-77
2021/04/05 11:28:37;;;;;;;7.80;2.03;;;;;;;;;;5091665;28;20405;-75
2021/04/05 11:31:17;;;;;;;6.65;2.00;;;;;;;;;;5090311;28;20183;-75
2021/04/05 11:34:03;;;;;;;9.07;1.85;;;;;;;;;;5099163;28;20188;-77
2021/04/05 11:36:52;;;;;;;4.07;1.40;;;;;;;;;;5097560;28;20214;-76
2021/04/05 11:39:19;;;;;;;6.03;1.50;;;;;;;;;;5082587;28;20203;-76
2021/04/05 11:41:46;;;;;;;4.45;1.67;;;;;;;;;;5091290;28;20171;-77
2021/04/05 11:44:13;;;;;;;4.25;1.70;;;;;;;;;;5090869;28;20647;-76
2021/04/05 11:46:44;;;;;;;4.78;1.73;;;;;;;;;;5091068;28;20256;-77
2021/04/05 11:49:14;;;;;;;5.30;1.52;;;;;;;;;;5091759;28;20278;-77
2021/04/05 11:51:40;;;;;;;4.13;1.40;;;;;;;;;;5111760;27;20266;-76
2021/04/05 11:54:07;;;;;;;3.65;1.05;;;;;;;;;;5095668;28;20178;-77
2021/04/05 11:56:34;;;;;;;2.60;1.10;;;;;;;;;;5098312;28;20225;-77
2021/04/05 11:59:06;;;;;;;4.05;1.30;;;;;;;;;;5095686;28;20187;-77
2021/04/05 12:01:37;;;;;;;4.38;1.83;;;;;;;;;;5090967;28;20179;-77
2021/04/05 12:04:08;;;;;;;2.65;1.00;;;;;;;;;;5090344;28;20245;-76
2021/04/05 12:06:43;;;;;;;2.50;1.30;;;;;;;;;;5090816;28;20230;-79
2021/04/05 12:09:13;;;;;;;4.60;1.45;;;;;;;;;;5096041;28;20239;-75
2021/04/05 12:11:50;;;;;;;8.70;1.80;;;;;;;;;;5095919;28;20187;-76
2021/04/05 12:14:24;;;;;;;7.95;1.98;;;;;;;;;;5090587;28;20179;-75
2021/04/05 12:16:51;;;;;;;8.63;1.77;;;;;;;;;;5100155;28;20642;-75
2021/04/05 12:19:26;;;;;;;6.72;1.75;;;;;;;;;;5090775;28;20276;-75
2021/04/05 12:21:52;;;;;;;5.25;1.63;;;;;;;;;;5090495;28;20178;-77
2021/04/05 12:24:30;;;;;;;4.10;1.70;;;;;;;;;;5088973;28;20183;-76
2021/04/05 12:26:57;;;;;;;5.18;1.40;;;;;;;;;;5089995;28;20273;-76
2021/04/05 12:29:24;;;;;;;4.07;1.48;;;;;;;;;;5096296;28;20228;-77
2021/04/05 12:31:54;;;;;;;5.70;1.63;;;;;;;;;;5097846;28;20187;-76
2021/04/05 12:34:21;;;;;;;3.90;1.45;;;;;;;;;;5110435;28;20197;-77
2021/04/05 12:36:47;;;;;;;4.75;1.60;;;;;;;;;;5091711;28;20203;-76
2021/04/05 12:39:13;;;;;;;5.07;1.48;;;;;;;;;;5089906;28;20818;-77
2021/04/05 12:41:44;;;;;;;3.97;1.90;;;;;;;;;;5098203;28;20261;-75
2021/04/05 12:44:12;;;;;;;3.25;1.25;;;;;;;;;;5110110;28;20224;-77
2021/04/05 12:46:39;;;;;;;3.92;1.50;;;;;;;;;;5102545;28;20802;-77
2021/04/05 12:49:06;;;;;;;3.03;1.40;;;;;;;;;;5088665;28;20191;-77
2021/04/05 12:51:32;;;;;;;4.10;1.52;;;;;;;;;;5099533;28;20189;-76
2021/04/05 12:54:21;;;;;;;2.40;1.27;;;;;;;;;;5110027;28;20202;-76
2021/04/05 12:56:49;;;;;;;3.22;1.40;;;;;;;;;;5104321;28;20691;-76
2021/04/05 12:59:20;;;;;;;4.78;1.38;;;;;;;;;;5110112;28;20187;-76
2021/04/05 13:01:51;;;;;;;3.70;1.67;;;;;;;;;;5107640;28;20191;-77
2021/04/05 13:04:24;;;;;;;5.10;1.40;;;;;;;;;;5095426;28;20292;-77
2021/04/05 13:07:13;;;;;;;4.07;1.40;;;;;;;;;;5071971;28;20261;-76
2021/04/05 13:09:41;;;;;;;4.18;1.70;;;;;;;;;;5063459;28;20226;-75
2021/04/05 13:12:27;;;;;;;3.22;1.30;;;;;;;;;;5090415;28;20189;-76
2021/04/05 13:14:55;;;;;;;6.03;1.45;;;;;;;;;;5089952;28;20178;-76
2021/04/05 13:17:28;;;;;;;6.65;2.28;;;;;;;;;;5099025;28;20178;-76
2021/04/05 13:20:01;;;;;;;4.80;1.80;;;;;;;;;;5092351;28;20209;-77
2021/04/05 13:22:28;;;;;;;4.65;1.27;;;;;;;;;;5085443;28;20176;-78
2021/04/05 13:24:59;;;;;;;3.70;1.27;;;;;;;;;;5096597;28;20183;-74
2021/04/05 13:27:27;;;;;;;7.28;1.95;;;;;;;;;;5094301;28;20252;-76
2021/04/05 13:29:53;;;;;;;2.85;1.17;;;;;;;;;;5089794;28;20190;-76
2021/04/05 13:32:24;;;;;;;2.67;1.25;;;;;;;;;;5089939;28;20184;-75
2021/04/05 13:34:50;;;;;;;8.27;2.13;;;;;;;;;;5108897;28;20547;-76
2021/04/05 13:37:17;;;;;;;2.75;1.35;;;;;;;;;;5098219;28;20198;-75
2021/04/05 13:39:44;;;;;;;10.00;1.73;;;;;;;;;;5089394;28;20541;-76
2021/04/05 13:42:19;;;;;;;5.65;1.33;;;;;;;;;;5089738;28;20180;-76
2021/04/05 13:44:46;;;;;;;2.40;1.10;;;;;;;;;;5076559;28;20178;-76
2021/04/05 13:47:13;;;;;;;5.00;1.45;;;;;;;;;;5089708;28;20176;-78
2021/04/05 13:49:43;;;;;;;3.45;1.60;;;;;;;;;;5089764;28;20179;-77
2021/04/05 13:52:11;;;;;;;5.53;1.60;;;;;;;;;;5090981;28;20183;-75
2021/04/05 13:54:39;;;;;;;3.72;1.38;;;;;;;;;;5103473;28;20182;-77
2021/04/05 13:57:06;;;;;;;5.93;1.30;;;;;;;;;;5093391;28;20195;-76
2021/04/05 13:59:34;;;;;;;3.42;1.40;;;;;;;;;;5096373;28;20679;-77
2021/04/05 14:02:01;;;;;;;5.40;1.40;;;;;;;;;;5093537;28;20202;-77
2021/04/05 14:04:38;;;;;;;6.95;1.85;;;;;;;;;;5091303;28;20199;-76
2021/04/05 14:07:05;;;;;;;5.07;1.60;;;;;;;;;;5106810;28;20199;-76
2021/04/05 14:09:32;;;;;;;3.50;1.60;;;;;;;;;;5093017;28;20199;-77
2021/04/05 14:11:59;;;;;;;19.25;2.60;;;;;;;;;;5090395;28;20179;-77
2021/04/05 14:14:26;;;;;;;5.80;1.83;;;;;;;;;;5092712;28;20671;-77
2021/04/05 14:16:58;;;;;;;6.47;1.77;;;;;;;;;;5111589;28;20209;-77
2021/04/05 14:19:36;;;;;;;3.22;1.60;;;;;;;;;;5109691;27;20180;-76
2021/04/05 14:22:24;;;;;;;5.45;2.20;;;;;;;;;;5088123;28;20209;-77
2021/04/05 14:24:50;;;;;;;8.15;2.50;;;;;;;;;;5107222;28;20861;-75
2021/04/05 14:27:40;;;;;;;8.30;2.47;;;;;;;;;;5108610;28;20592;-76
2021/04/05 14:30:06;;;;;;;5.93;1.73;;;;;;;;;;5090446;28;20544;-77
2021/04/05 14:32:34;;;;;;;9.38;2.10;;;;;;;;;;5113409;27;20187;-77
2021/04/05 14:35:04;;;;;;;6.32;1.92;;;;;;;;;;5094050;28;20927;-76
2021/04/05 14:37:43;;;;;;;8.10;1.90;;;;;;;;;;5093418;28;20171;-76
2021/04/05 14:40:10;;;;;;;7.40;2.08;;;;;;;;;;5092712;28;20218;-76
2021/04/05 14:42:40;;;;;;;5.47;1.70;;;;;;;;;;5093063;28;20199;-77
2021/04/05 14:45:10;;;;;;;4.68;1.45;;;;;;;;;;5096696;28;20260;-76
2021/04/05 14:47:40;;;;;;;4.38;1.50;;;;;;;;;;5113427;28;20508;-76
2021/04/05 14:50:08;;;;;;;7.78;1.30;;;;;;;;;;5093783;28;20259;-77
2021/04/05 14:52:38;;;;;;;4.07;1.33;;;;;;;;;;5092800;28;20214;-77
2021/04/05 14:55:05;;;;;;;7.55;1.75;;;;;;;;;;5092151;28;20179;-77